sensor_id;sensor_type;location;lat;lon;timestamp;pressure;altitude;pressure_sealevel;temperature;humidity
54144;BME280;40050;47.324;18.792;2022-11-06T00:01:16;1003.74;;;12.13;77.32
54144;BME280;40050;47.324;18.792;2022-11-06T00:03:17;1003.72;;;12.07;77.58
54144;BME280;40050;47.324;18.792;2022-11-06T00:05:18;1003.80;;;12.07;77.63
54144;BME280;40050;47.324;18.792;2022-11-06T00:07:19;1003.75;;;12.09;77.61
54144;BME280;40050;47.324;18.792;2022-11-06T00:09:20;1003.78;;;12.11;77.51
54144;BME280;40050;47.324;18.792;2022-11-06T00:11:21;1003.87;;;12.14;77.29
54144;BME280;40050;47.324;18.792;2022-11-06T00:13:22;1003.85;;;12.13;77.34
54144;BME280;40050;47.324;18.792;2022-11-06T00:15:23;1003.84;;;12.11;77.40
54144;BME280;40050;47.324;18.792;2022-11-06T00:17:23;1003.90;;;12.14;77.45
54144;BME280;40050;47.324;18.792;2022-11-06T00:19:24;1003.95;;;12.14;77.47
54144;BME280;40050;47.324;18.792;2022-11-06T00:21:25;1003.93;;;12.14;77.46
54144;BME280;40050;47.324;18.792;2022-11-06T00:23:27;1003.94;;;12.13;77.42
54144;BME280;40050;47.324;18.792;2022-11-06T00:25:27;1003.84;;;12.11;77.48
54144;BME280;40050;47.324;18.792;2022-11-06T00:27:28;1003.83;;;12.11;77.50
54144;BME280;40050;47.324;18.792;2022-11-06T00:29:29;1003.78;;;12.11;77.47
54144;BME280;40050;47.324;18.792;2022-11-06T00:31:35;1003.88;;;12.14;77.39
54144;BME280;40050;47.324;18.792;2022-11-06T00:33:36;1003.83;;;12.15;77.36
54144;BME280;40050;47.324;18.792;2022-11-06T00:35:37;1003.79;;;12.16;77.03
54144;BME280;40050;47.324;18.792;2022-11-06T00:37:38;1003.81;;;12.16;77.00
54144;BME280;40050;47.324;18.792;2022-11-06T00:39:39;1003.80;;;12.17;76.98
54144;BME280;40050;47.324;18.792;2022-11-06T00:41:40;1003.81;;;12.17;77.05
54144;BME280;40050;47.324;18.792;2022-11-06T00:43:41;1003.78;;;12.14;77.07
54144;BME280;40050;47.324;18.792;2022-11-06T00:45:42;1003.81;;;12.17;77.10
54144;BME280;40050;47.324;18.792;2022-11-06T00:47:43;1003.84;;;12.17;77.06
54144;BME280;40050;47.324;18.792;2022-11-06T00:49:44;1003.81;;;12.17;77.00
54144;BME280;40050;47.324;18.792;2022-11-06T00:51:44;1003.82;;;12.15;76.99
54144;BME280;40050;47.324;18.792;2022-11-06T00:53:45;1003.84;;;12.17;76.82
54144;BME280;40050;47.324;18.792;2022-11-06T00:55:46;1003.85;;;12.20;76.61
54144;BME280;40050;47.324;18.792;2022-11-06T00:57:47;1003.84;;;12.19;76.68
54144;BME280;40050;47.324;18.792;2022-11-06T00:59:48;1003.88;;;12.19;76.66
54144;BME280;40050;47.324;18.792;2022-11-06T01:01:49;1003.82;;;12.17;76.95
54144;BME280;40050;47.324;18.792;2022-11-06T01:03:55;1003.80;;;12.15;76.93
54144;BME280;40050;47.324;18.792;2022-11-06T01:06:02;1003.78;;;12.16;76.87
54144;BME280;40050;47.324;18.792;2022-11-06T01:08:03;1003.90;;;12.15;77.04
54144;BME280;40050;47.324;18.792;2022-11-06T01:10:04;1003.71;;;12.01;77.06
54144;BME280;40050;47.324;18.792;2022-11-06T01:12:05;1003.90;;;12.14;77.10
54144;BME280;40050;47.324;18.792;2022-11-06T01:14:06;1003.94;;;12.18;77.01
54144;BME280;40050;47.324;18.792;2022-11-06T01:16:08;1003.93;;;12.21;76.76
54144;BME280;40050;47.324;18.792;2022-11-06T01:18:09;1003.97;;;12.17;76.77
54144;BME280;40050;47.324;18.792;2022-11-06T01:20:10;1003.98;;;12.16;76.94
54144;BME280;40050;47.324;18.792;2022-11-06T01:22:11;1003.97;;;12.18;76.67
54144;BME280;40050;47.324;18.792;2022-11-06T01:24:22;1003.93;;;12.15;77.00
54144;BME280;40050;47.324;18.792;2022-11-06T01:26:23;1003.94;;;12.16;77.08
54144;BME280;40050;47.324;18.792;2022-11-06T01:28:24;1003.93;;;12.15;77.16
54144;BME280;40050;47.324;18.792;2022-11-06T01:30:25;1003.98;;;12.17;77.17
54144;BME280;40050;47.324;18.792;2022-11-06T01:32:26;1003.92;;;12.19;77.02
54144;BME280;40050;47.324;18.792;2022-11-06T01:34:27;1003.95;;;12.18;77.06
54144;BME280;40050;47.324;18.792;2022-11-06T01:36:28;1003.95;;;12.19;77.11
54144;BME280;40050;47.324;18.792;2022-11-06T01:38:29;1003.98;;;12.18;77.26
54144;BME280;40050;47.324;18.792;2022-11-06T01:40:30;1003.96;;;12.17;77.21
54144;BME280;40050;47.324;18.792;2022-11-06T01:42:30;1004.01;;;12.19;77.27
54144;BME280;40050;47.324;18.792;2022-11-06T01:46:47;1004.00;;;12.20;77.33
54144;BME280;40050;47.324;18.792;2022-11-06T01:48:52;1003.71;;;12.03;77.23
54144;BME280;40050;47.324;18.792;2022-11-06T01:50:55;1003.74;;;12.05;77.19
54144;BME280;40050;47.324;18.792;2022-11-06T01:52:57;1004.01;;;12.20;77.04
54144;BME280;40050;47.324;18.792;2022-11-06T01:55:03;1004.02;;;12.18;77.24
54144;BME280;40050;47.324;18.792;2022-11-06T01:57:06;1004.03;;;12.16;77.39
54144;BME280;40050;47.324;18.792;2022-11-06T01:59:09;1004.02;;;12.17;77.22
54144;BME280;40050;47.324;18.792;2022-11-06T02:01:13;1004.06;;;12.18;77.26
54144;BME280;40050;47.324;18.792;2022-11-06T02:03:13;1004.06;;;12.19;77.20
54144;BME280;40050;47.324;18.792;2022-11-06T02:05:15;1003.99;;;12.13;77.33
54144;BME280;40050;47.324;18.792;2022-11-06T02:07:17;1004.12;;;12.20;77.21
54144;BME280;40050;47.324;18.792;2022-11-06T02:09:18;1004.13;;;12.18;77.31
54144;BME280;40050;47.324;18.792;2022-11-06T02:11:19;1004.12;;;12.18;77.25
54144;BME280;40050;47.324;18.792;2022-11-06T02:13:32;1004.19;;;12.18;77.35
54144;BME280;40050;47.324;18.792;2022-11-06T02:15:43;1004.18;;;12.20;77.26
54144;BME280;40050;47.324;18.792;2022-11-06T02:20:16;1004.26;;;12.23;77.32
54144;BME280;40050;47.324;18.792;2022-11-06T02:24:51;1004.26;;;12.27;77.13
54144;BME280;40050;47.324;18.792;2022-11-06T02:29:09;1004.28;;;12.23;77.25
54144;BME280;40050;47.324;18.792;2022-11-06T02:31:15;1004.32;;;12.27;77.16
54144;BME280;40050;47.324;18.792;2022-11-06T02:33:27;1004.28;;;12.22;77.07
54144;BME280;40050;47.324;18.792;2022-11-06T02:35:30;1004.32;;;12.24;77.26
54144;BME280;40050;47.324;18.792;2022-11-06T02:37:32;1004.36;;;12.23;77.15
54144;BME280;40050;47.324;18.792;2022-11-06T02:39:35;1004.40;;;12.23;77.30
54144;BME280;40050;47.324;18.792;2022-11-06T02:41:39;1004.40;;;12.19;77.47
54144;BME280;40050;47.324;18.792;2022-11-06T02:43:43;1004.43;;;12.21;77.53
54144;BME280;40050;47.324;18.792;2022-11-06T02:45:50;1004.45;;;12.22;77.48
54144;BME280;40050;47.324;18.792;2022-11-06T02:47:53;1004.44;;;12.23;77.50
54144;BME280;40050;47.324;18.792;2022-11-06T02:49:56;1004.41;;;12.22;77.38
54144;BME280;40050;47.324;18.792;2022-11-06T02:52:00;1004.48;;;12.23;77.51
54144;BME280;40050;47.324;18.792;2022-11-06T02:54:04;1004.49;;;12.23;77.59
54144;BME280;40050;47.324;18.792;2022-11-06T02:56:06;1004.49;;;12.24;77.53
54144;BME280;40050;47.324;18.792;2022-11-06T02:58:10;1004.47;;;12.22;77.61
54144;BME280;40050;47.324;18.792;2022-11-06T03:00:13;1004.52;;;12.24;77.58
54144;BME280;40050;47.324;18.792;2022-11-06T03:02:22;1004.45;;;12.25;77.53
54144;BME280;40050;47.324;18.792;2022-11-06T03:04:29;1004.53;;;12.27;77.39
54144;BME280;40050;47.324;18.792;2022-11-06T03:06:34;1004.52;;;12.27;77.55
54144;BME280;40050;47.324;18.792;2022-11-06T03:08:38;1004.59;;;12.27;77.51
54144;BME280;40050;47.324;18.792;2022-11-06T03:10:45;1004.50;;;12.26;77.20
54144;BME280;40050;47.324;18.792;2022-11-06T03:12:51;1004.63;;;12.23;77.50
54144;BME280;40050;47.324;18.792;2022-11-06T03:14:58;1004.62;;;12.21;77.67
54144;BME280;40050;47.324;18.792;2022-11-06T03:17:21;1004.67;;;12.19;77.73
54144;BME280;40050;47.324;18.792;2022-11-06T03:21:39;1004.69;;;12.15;78.00
54144;BME280;40050;47.324;18.792;2022-11-06T03:23:46;1004.69;;;12.14;78.01
54144;BME280;40050;47.324;18.792;2022-11-06T03:25:52;1004.76;;;12.19;77.92
54144;BME280;40050;47.324;18.792;2022-11-06T03:28:02;1004.76;;;12.15;77.97
54144;BME280;40050;47.324;18.792;2022-11-06T03:30:05;1004.81;;;12.16;78.08
54144;BME280;40050;47.324;18.792;2022-11-06T03:32:14;1004.81;;;12.19;78.07
54144;BME280;40050;47.324;18.792;2022-11-06T03:34:21;1004.79;;;12.20;78.08
54144;BME280;40050;47.324;18.792;2022-11-06T03:36:33;1004.79;;;12.20;78.07
54144;BME280;40050;47.324;18.792;2022-11-06T03:38:43;1004.86;;;12.23;78.02
54144;BME280;40050;47.324;18.792;2022-11-06T03:40:46;1004.87;;;12.23;78.03
54144;BME280;40050;47.324;18.792;2022-11-06T03:42:50;1004.68;;;12.09;78.02
54144;BME280;40050;47.324;18.792;2022-11-06T03:44:56;1004.88;;;12.23;77.97
54144;BME280;40050;47.324;18.792;2022-11-06T03:47:01;1004.87;;;12.21;78.05
54144;BME280;40050;47.324;18.792;2022-11-06T03:49:05;1004.93;;;12.23;78.01
54144;BME280;40050;47.324;18.792;2022-11-06T03:51:12;1004.89;;;12.24;77.78
54144;BME280;40050;47.324;18.792;2022-11-06T03:53:17;1004.89;;;12.20;77.98
54144;BME280;40050;47.324;18.792;2022-11-06T03:55:24;1004.86;;;12.18;78.11
54144;BME280;40050;47.324;18.792;2022-11-06T03:57:29;1004.89;;;12.20;78.08
54144;BME280;40050;47.324;18.792;2022-11-06T03:59:33;1004.89;;;12.16;78.12
54144;BME280;40050;47.324;18.792;2022-11-06T04:01:36;1004.84;;;12.15;78.14
54144;BME280;40050;47.324;18.792;2022-11-06T04:03:44;1004.90;;;12.14;78.20
54144;BME280;40050;47.324;18.792;2022-11-06T04:05:55;1004.89;;;12.14;78.18
54144;BME280;40050;47.324;18.792;2022-11-06T04:07:58;1004.90;;;12.16;78.34
54144;BME280;40050;47.324;18.792;2022-11-06T04:09:59;1004.98;;;12.19;78.27
54144;BME280;40050;47.324;18.792;2022-11-06T04:12:02;1004.97;;;12.17;78.33
54144;BME280;40050;47.324;18.792;2022-11-06T04:14:04;1004.93;;;12.17;78.28
54144;BME280;40050;47.324;18.792;2022-11-06T04:16:05;1004.96;;;12.19;78.30
54144;BME280;40050;47.324;18.792;2022-11-06T04:18:13;1005.01;;;12.20;78.26
54144;BME280;40050;47.324;18.792;2022-11-06T04:20:18;1005.01;;;12.19;78.14
54144;BME280;40050;47.324;18.792;2022-11-06T04:22:31;1005.00;;;12.18;78.19
54144;BME280;40050;47.324;18.792;2022-11-06T04:24:38;1004.91;;;12.14;78.33
54144;BME280;40050;47.324;18.792;2022-11-06T04:29:17;1004.98;;;12.26;77.97
54144;BME280;40050;47.324;18.792;2022-11-06T04:33:45;1004.90;;;12.23;77.95
54144;BME280;40050;47.324;18.792;2022-11-06T04:36:04;1004.97;;;12.23;78.01
54144;BME280;40050;47.324;18.792;2022-11-06T04:38:35;1004.96;;;12.18;78.12
54144;BME280;40050;47.324;18.792;2022-11-06T04:42:58;1004.81;;;12.10;78.07
54144;BME280;40050;47.324;18.792;2022-11-06T04:45:01;1004.98;;;12.24;77.86
54144;BME280;40050;47.324;18.792;2022-11-06T04:47:04;1004.99;;;12.22;77.98
54144;BME280;40050;47.324;18.792;2022-11-06T04:49:05;1005.00;;;12.20;77.97
54144;BME280;40050;47.324;18.792;2022-11-06T04:51:07;1004.90;;;12.19;77.89
54144;BME280;40050;47.324;18.792;2022-11-06T04:53:09;1004.95;;;12.20;77.80
54144;BME280;40050;47.324;18.792;2022-11-06T04:55:11;1004.94;;;12.14;77.94
54144;BME280;40050;47.324;18.792;2022-11-06T04:57:12;1004.84;;;12.12;78.06
54144;BME280;40050;47.324;18.792;2022-11-06T04:59:14;1004.95;;;12.18;78.06
54144;BME280;40050;47.324;18.792;2022-11-06T05:01:16;1004.97;;;12.21;77.88
54144;BME280;40050;47.324;18.792;2022-11-06T05:03:17;1005.00;;;12.17;78.00
54144;BME280;40050;47.324;18.792;2022-11-06T05:05:18;1005.00;;;12.15;78.06
54144;BME280;40050;47.324;18.792;2022-11-06T05:07:19;1004.94;;;12.14;77.96
54144;BME280;40050;47.324;18.792;2022-11-06T05:09:19;1004.99;;;12.13;78.11
54144;BME280;40050;47.324;18.792;2022-11-06T05:11:20;1005.01;;;12.12;78.22
54144;BME280;40050;47.324;18.792;2022-11-06T05:13:21;1005.03;;;12.14;78.28
54144;BME280;40050;47.324;18.792;2022-11-06T05:15:22;1005.06;;;12.14;78.35
54144;BME280;40050;47.324;18.792;2022-11-06T05:17:23;1005.07;;;12.14;78.38
54144;BME280;40050;47.324;18.792;2022-11-06T05:19:23;1005.06;;;12.16;78.40
54144;BME280;40050;47.324;18.792;2022-11-06T05:21:24;1005.05;;;12.15;78.34
54144;BME280;40050;47.324;18.792;2022-11-06T05:23:25;1005.05;;;12.15;78.35
54144;BME280;40050;47.324;18.792;2022-11-06T05:25:27;1005.04;;;12.15;78.32
54144;BME280;40050;47.324;18.792;2022-11-06T05:27:28;1005.07;;;12.20;77.89
54144;BME280;40050;47.324;18.792;2022-11-06T05:29:29;1005.09;;;12.11;78.13
54144;BME280;40050;47.324;18.792;2022-11-06T05:31:30;1005.05;;;12.09;78.22
54144;BME280;40050;47.324;18.792;2022-11-06T05:33:31;1005.17;;;12.18;78.16
54144;BME280;40050;47.324;18.792;2022-11-06T05:35:31;1005.14;;;12.15;78.20
54144;BME280;40050;47.324;18.792;2022-11-06T05:37:32;1005.23;;;12.15;78.34
54144;BME280;40050;47.324;18.792;2022-11-06T05:39:33;1005.29;;;12.16;78.44
54144;BME280;40050;47.324;18.792;2022-11-06T05:41:34;1005.33;;;12.19;78.33
54144;BME280;40050;47.324;18.792;2022-11-06T05:43:35;1005.40;;;12.23;78.05
54144;BME280;40050;47.324;18.792;2022-11-06T05:45:36;1005.41;;;12.19;78.09
54144;BME280;40050;47.324;18.792;2022-11-06T05:47:38;1005.38;;;12.18;78.23
54144;BME280;40050;47.324;18.792;2022-11-06T05:49:39;1005.46;;;12.21;77.95
54144;BME280;40050;47.324;18.792;2022-11-06T05:51:40;1005.45;;;12.19;78.07
54144;BME280;40050;47.324;18.792;2022-11-06T05:53:41;1005.52;;;12.21;78.09
54144;BME280;40050;47.324;18.792;2022-11-06T05:55:43;1005.55;;;12.22;78.19
54144;BME280;40050;47.324;18.792;2022-11-06T05:57:44;1005.56;;;12.23;78.20
54144;BME280;40050;47.324;18.792;2022-11-06T05:59:45;1005.59;;;12.24;78.18
54144;BME280;40050;47.324;18.792;2022-11-06T06:01:46;1005.58;;;12.26;78.04
54144;BME280;40050;47.324;18.792;2022-11-06T06:03:47;1005.59;;;12.28;77.95
54144;BME280;40050;47.324;18.792;2022-11-06T06:05:48;1005.66;;;12.28;77.88
54144;BME280;40050;47.324;18.792;2022-11-06T06:07:48;1005.61;;;12.25;77.96
54144;BME280;40050;47.324;18.792;2022-11-06T06:09:49;1005.69;;;12.26;78.00
54144;BME280;40050;47.324;18.792;2022-11-06T06:11:50;1005.72;;;12.27;77.99
54144;BME280;40050;47.324;18.792;2022-11-06T06:13:51;1005.74;;;12.26;78.06
54144;BME280;40050;47.324;18.792;2022-11-06T06:15:52;1005.72;;;12.25;77.96
54144;BME280;40050;47.324;18.792;2022-11-06T06:17:53;1005.75;;;12.26;78.01
54144;BME280;40050;47.324;18.792;2022-11-06T06:19:54;1005.79;;;12.28;77.86
54144;BME280;40050;47.324;18.792;2022-11-06T06:21:54;1005.74;;;12.21;78.00
54144;BME280;40050;47.324;18.792;2022-11-06T06:23:55;1005.58;;;12.09;77.96
54144;BME280;40050;47.324;18.792;2022-11-06T06:25:56;1005.81;;;12.22;77.92
54144;BME280;40050;47.324;18.792;2022-11-06T06:27:57;1005.83;;;12.20;77.95
54144;BME280;40050;47.324;18.792;2022-11-06T06:29:58;1005.84;;;12.14;78.05
54144;BME280;40050;47.324;18.792;2022-11-06T06:31:59;1005.83;;;12.17;77.94
54144;BME280;40050;47.324;18.792;2022-11-06T06:34:00;1005.94;;;12.18;77.93
54144;BME280;40050;47.324;18.792;2022-11-06T06:36:06;1005.94;;;12.13;78.07
54144;BME280;40050;47.324;18.792;2022-11-06T06:38:07;1005.97;;;12.13;78.17
54144;BME280;40050;47.324;18.792;2022-11-06T06:40:08;1006.02;;;12.13;78.27
54144;BME280;40050;47.324;18.792;2022-11-06T06:42:09;1006.06;;;12.12;78.35
54144;BME280;40050;47.324;18.792;2022-11-06T06:44:10;1005.86;;;11.96;78.33
54144;BME280;40050;47.324;18.792;2022-11-06T06:46:11;1006.07;;;12.09;78.52
54144;BME280;40050;47.324;18.792;2022-11-06T06:48:12;1006.11;;;12.08;78.52
54144;BME280;40050;47.324;18.792;2022-11-06T06:50:13;1006.15;;;12.09;78.61
54144;BME280;40050;47.324;18.792;2022-11-06T06:52:13;1006.10;;;12.05;78.72
54144;BME280;40050;47.324;18.792;2022-11-06T06:54:14;1006.14;;;12.06;78.82
54144;BME280;40050;47.324;18.792;2022-11-06T06:56:15;1006.26;;;12.10;78.82
54144;BME280;40050;47.324;18.792;2022-11-06T06:58:16;1006.24;;;12.10;78.84
54144;BME280;40050;47.324;18.792;2022-11-06T07:00:17;1006.25;;;12.11;78.83
54144;BME280;40050;47.324;18.792;2022-11-06T07:02:18;1006.22;;;12.12;78.78
54144;BME280;40050;47.324;18.792;2022-11-06T07:04:18;1006.28;;;12.16;78.69
54144;BME280;40050;47.324;18.792;2022-11-06T07:06:19;1006.25;;;12.11;78.72
54144;BME280;40050;47.324;18.792;2022-11-06T07:08:20;1006.25;;;12.09;78.91
54144;BME280;40050;47.324;18.792;2022-11-06T07:10:21;1006.28;;;12.13;78.88
54144;BME280;40050;47.324;18.792;2022-11-06T07:12:22;1006.29;;;12.14;78.92
54144;BME280;40050;47.324;18.792;2022-11-06T07:14:23;1006.32;;;12.18;78.67
54144;BME280;40050;47.324;18.792;2022-11-06T07:16:23;1006.32;;;12.14;78.75
54144;BME280;40050;47.324;18.792;2022-11-06T07:18:24;1006.36;;;12.16;78.69
54144;BME280;40050;47.324;18.792;2022-11-06T07:20:25;1006.30;;;12.11;78.79
54144;BME280;40050;47.324;18.792;2022-11-06T07:24:42;1006.39;;;12.08;79.04
54144;BME280;40050;47.324;18.792;2022-11-06T07:26:42;1006.40;;;12.09;79.11
54144;BME280;40050;47.324;18.792;2022-11-06T07:28:43;1006.41;;;12.10;79.05
54144;BME280;40050;47.324;18.792;2022-11-06T07:30:44;1006.45;;;12.12;78.84
54144;BME280;40050;47.324;18.792;2022-11-06T07:32:45;1006.46;;;12.08;78.88
54144;BME280;40050;47.324;18.792;2022-11-06T07:34:46;1006.34;;;12.00;78.71
54144;BME280;40050;47.324;18.792;2022-11-06T07:36:47;1006.50;;;12.07;78.95
54144;BME280;40050;47.324;18.792;2022-11-06T07:38:48;1006.47;;;12.04;79.11
54144;BME280;40050;47.324;18.792;2022-11-06T07:40:49;1006.53;;;12.05;79.11
54144;BME280;40050;47.324;18.792;2022-11-06T07:42:49;1006.59;;;12.07;79.18
54144;BME280;40050;47.324;18.792;2022-11-06T07:44:50;1006.56;;;12.08;79.01
54144;BME280;40050;47.324;18.792;2022-11-06T07:46:51;1006.38;;;11.97;79.21
54144;BME280;40050;47.324;18.792;2022-11-06T07:48:52;1006.56;;;12.07;79.23
54144;BME280;40050;47.324;18.792;2022-11-06T07:50:53;1006.51;;;12.07;79.30
54144;BME280;40050;47.324;18.792;2022-11-06T07:52:54;1006.51;;;12.07;79.31
54144;BME280;40050;47.324;18.792;2022-11-06T07:54:55;1006.53;;;12.11;79.26
54144;BME280;40050;47.324;18.792;2022-11-06T07:56:55;1006.46;;;12.07;79.26
54144;BME280;40050;47.324;18.792;2022-11-06T07:58:56;1006.54;;;12.13;79.09
54144;BME280;40050;47.324;18.792;2022-11-06T08:00:57;1006.51;;;12.09;79.18
54144;BME280;40050;47.324;18.792;2022-11-06T08:02:58;1006.54;;;12.12;79.27
54144;BME280;40050;47.324;18.792;2022-11-06T08:04:59;1006.52;;;12.14;79.32
54144;BME280;40050;47.324;18.792;2022-11-06T08:06:59;1006.50;;;12.13;79.24
54144;BME280;40050;47.324;18.792;2022-11-06T08:09:03;1006.51;;;12.14;79.28
54144;BME280;40050;47.324;18.792;2022-11-06T08:11:04;1006.54;;;12.15;79.37
54144;BME280;40050;47.324;18.792;2022-11-06T08:13:06;1006.56;;;12.18;79.28
54144;BME280;40050;47.324;18.792;2022-11-06T08:15:07;1006.52;;;12.20;79.14
54144;BME280;40050;47.324;18.792;2022-11-06T08:17:08;1006.58;;;12.21;79.25
54144;BME280;40050;47.324;18.792;2022-11-06T08:19:08;1006.59;;;12.21;79.22
54144;BME280;40050;47.324;18.792;2022-11-06T08:21:09;1006.52;;;12.17;79.37
54144;BME280;40050;47.324;18.792;2022-11-06T08:23:10;1006.52;;;12.20;79.36
54144;BME280;40050;47.324;18.792;2022-11-06T08:25:12;1006.57;;;12.20;79.34
54144;BME280;40050;47.324;18.792;2022-11-06T08:27:12;1006.51;;;12.19;79.42
54144;BME280;40050;47.324;18.792;2022-11-06T08:29:13;1006.45;;;12.19;79.44
54144;BME280;40050;47.324;18.792;2022-11-06T08:31:14;1006.51;;;12.25;79.38
54144;BME280;40050;47.324;18.792;2022-11-06T08:33:15;1006.46;;;12.25;79.31
54144;BME280;40050;47.324;18.792;2022-11-06T08:35:16;1006.48;;;12.25;79.25
54144;BME280;40050;47.324;18.792;2022-11-06T08:37:17;1006.29;;;12.18;79.29
54144;BME280;40050;47.324;18.792;2022-11-06T08:39:18;1006.46;;;12.29;79.40
54144;BME280;40050;47.324;18.792;2022-11-06T08:41:18;1006.48;;;12.30;79.43
54144;BME280;40050;47.324;18.792;2022-11-06T08:43:19;1006.37;;;12.26;79.40
54144;BME280;40050;47.324;18.792;2022-11-06T08:45:20;1006.48;;;12.33;79.49
54144;BME280;40050;47.324;18.792;2022-11-06T08:47:21;1006.49;;;12.37;79.28
54144;BME280;40050;47.324;18.792;2022-11-06T08:49:22;1006.53;;;12.37;79.26
54144;BME280;40050;47.324;18.792;2022-11-06T08:51:23;1006.56;;;12.39;79.13
54144;BME280;40050;47.324;18.792;2022-11-06T08:53:24;1006.58;;;12.41;79.18
54144;BME280;40050;47.324;18.792;2022-11-06T08:55:24;1006.61;;;12.41;79.11
54144;BME280;40050;47.324;18.792;2022-11-06T08:57:26;1006.55;;;12.42;78.93
54144;BME280;40050;47.324;18.792;2022-11-06T08:59:27;1006.55;;;12.44;78.90
54144;BME280;40050;47.324;18.792;2022-11-06T09:01:27;1006.38;;;12.33;78.50
54144;BME280;40050;47.324;18.792;2022-11-06T09:03:28;1006.62;;;12.45;78.55
54144;BME280;40050;47.324;18.792;2022-11-06T09:05:29;1006.63;;;12.48;78.47
54144;BME280;40050;47.324;18.792;2022-11-06T09:07:30;1006.64;;;12.45;78.51
54144;BME280;40050;47.324;18.792;2022-11-06T09:09:31;1006.61;;;12.38;78.66
54144;BME280;40050;47.324;18.792;2022-11-06T09:11:32;1006.65;;;12.46;78.75
54144;BME280;40050;47.324;18.792;2022-11-06T09:13:32;1006.58;;;12.44;78.73
54144;BME280;40050;47.324;18.792;2022-11-06T09:15:33;1006.61;;;12.50;78.76
54144;BME280;40050;47.324;18.792;2022-11-06T09:17:40;1006.60;;;12.52;78.76
54144;BME280;40050;47.324;18.792;2022-11-06T09:19:41;1006.53;;;12.53;78.78
54144;BME280;40050;47.324;18.792;2022-11-06T09:21:42;1006.56;;;12.55;78.86
54144;BME280;40050;47.324;18.792;2022-11-06T09:23:43;1006.57;;;12.59;78.84
54144;BME280;40050;47.324;18.792;2022-11-06T09:25:44;1006.45;;;12.57;78.62
54144;BME280;40050;47.324;18.792;2022-11-06T09:27:49;1006.49;;;12.59;78.78
54144;BME280;40050;47.324;18.792;2022-11-06T09:29:50;1006.50;;;12.63;78.81
54144;BME280;40050;47.324;18.792;2022-11-06T09:31:51;1006.50;;;12.66;78.75
54144;BME280;40050;47.324;18.792;2022-11-06T09:33:52;1006.41;;;12.65;78.87
54144;BME280;40050;47.324;18.792;2022-11-06T09:35:52;1006.44;;;12.70;78.88
54144;BME280;40050;47.324;18.792;2022-11-06T09:37:53;1006.47;;;12.73;78.87
54144;BME280;40050;47.324;18.792;2022-11-06T09:39:54;1006.36;;;12.72;78.69
54144;BME280;40050;47.324;18.792;2022-11-06T09:42:11;1006.43;;;12.81;78.63
54144;BME280;40050;47.324;18.792;2022-11-06T09:45:17;1006.36;;;12.79;78.70
54144;BME280;40050;47.324;18.792;2022-11-06T09:46:41;1006.39;;;12.85;78.96
54144;BME280;40050;47.324;18.792;2022-11-06T09:48:44;1006.38;;;12.90;78.83
54144;BME280;40050;47.324;18.792;2022-11-06T09:50:51;1006.39;;;13.01;78.50
54144;BME280;40050;47.324;18.792;2022-11-06T09:52:56;1006.37;;;13.12;77.91
54144;BME280;40050;47.324;18.792;2022-11-06T09:55:19;1006.37;;;13.15;77.71
54144;BME280;40050;47.324;18.792;2022-11-06T09:57:13;1006.31;;;13.14;77.61
54144;BME280;40050;47.324;18.792;2022-11-06T09:59:16;1006.34;;;13.18;77.82
54144;BME280;40050;47.324;18.792;2022-11-06T10:01:19;1006.30;;;13.18;77.65
54144;BME280;40050;47.324;18.792;2022-11-06T10:03:25;1006.30;;;13.20;77.88
54144;BME280;40050;47.324;18.792;2022-11-06T10:05:32;1006.26;;;13.21;78.25
54144;BME280;40050;47.324;18.792;2022-11-06T10:07:35;1006.23;;;13.27;78.56
54144;BME280;40050;47.324;18.792;2022-11-06T10:09:36;1006.15;;;13.32;78.36
54144;BME280;40050;47.324;18.792;2022-11-06T10:14:24;1006.14;;;13.41;78.07
54144;BME280;40050;47.324;18.792;2022-11-06T10:16:25;1006.08;;;13.43;78.09
54144;BME280;40050;47.324;18.792;2022-11-06T10:18:55;1006.12;;;13.50;78.09
54144;BME280;40050;47.324;18.792;2022-11-06T10:23:21;1006.17;;;13.61;77.61
54144;BME280;40050;47.324;18.792;2022-11-06T10:25:27;1006.21;;;13.68;77.47
54144;BME280;40050;47.324;18.792;2022-11-06T10:27:38;1006.14;;;13.67;77.10
54144;BME280;40050;47.324;18.792;2022-11-06T10:34:25;1006.24;;;13.78;76.79
54144;BME280;40050;47.324;18.792;2022-11-06T10:36:30;1006.17;;;13.77;76.65
54144;BME280;40050;47.324;18.792;2022-11-06T10:38:39;1006.18;;;13.83;76.43
54144;BME280;40050;47.324;18.792;2022-11-06T10:40:45;1005.91;;;13.67;76.21
54144;BME280;40050;47.324;18.792;2022-11-06T10:42:49;1006.16;;;13.83;76.09
54144;BME280;40050;47.324;18.792;2022-11-06T10:44:56;1006.20;;;13.87;75.96
54144;BME280;40050;47.324;18.792;2022-11-06T10:47:21;1006.23;;;13.86;76.04
54144;BME280;40050;47.324;18.792;2022-11-06T10:53:57;1006.20;;;13.84;76.00
54144;BME280;40050;47.324;18.792;2022-11-06T10:56:15;1006.12;;;13.87;75.96
54144;BME280;40050;47.324;18.792;2022-11-06T10:58:20;1006.13;;;13.96;75.82
54144;BME280;40050;47.324;18.792;2022-11-06T11:00:22;1006.10;;;13.99;75.42
54144;BME280;40050;47.324;18.792;2022-11-06T11:02:25;1006.04;;;13.96;75.25
54144;BME280;40050;47.324;18.792;2022-11-06T11:04:29;1006.04;;;13.99;75.27
54144;BME280;40050;47.324;18.792;2022-11-06T11:06:31;1006.03;;;13.96;75.46
54144;BME280;40050;47.324;18.792;2022-11-06T11:08:40;1006.01;;;13.89;75.45
54144;BME280;40050;47.324;18.792;2022-11-06T11:10:41;1006.06;;;13.88;75.49
54144;BME280;40050;47.324;18.792;2022-11-06T11:12:42;1006.04;;;13.90;75.55
54144;BME280;40050;47.324;18.792;2022-11-06T11:14:45;1006.07;;;13.89;75.67
54144;BME280;40050;47.324;18.792;2022-11-06T11:16:58;1006.06;;;13.91;75.78
54144;BME280;40050;47.324;18.792;2022-11-06T11:19:13;1006.01;;;13.99;75.18
54144;BME280;40050;47.324;18.792;2022-11-06T11:21:19;1006.00;;;13.95;75.26
54144;BME280;40050;47.324;18.792;2022-11-06T11:23:23;1005.93;;;13.94;75.62
54144;BME280;40050;47.324;18.792;2022-11-06T11:25:24;1005.91;;;13.98;75.69
54144;BME280;40050;47.324;18.792;2022-11-06T11:27:25;1005.98;;;14.01;75.66